sensor_id;sensor_type;location;lat;lon;timestamp;temperature;humidity
18930;DHT22;43305;52.186;5.598;2023-10-13T00:01:02;16.80;99.90
18930;DHT22;43305;52.186;5.598;2023-10-13T00:03:32;16.80;99.90
18930;DHT22;43305;52.186;5.598;2023-10-13T00:05:59;16.80;99.90
18930;DHT22;43305;52.186;5.598;2023-10-13T00:08:30;16.80;99.90
18930;DHT22;43305;52.186;5.598;2023-10-13T00:10:57;16.80;99.90
18930;DHT22;43305;52.186;5.598;2023-10-13T00:13:26;16.80;99.90
18930;DHT22;43305;52.186;5.598;2023-10-13T00:15:53;16.80;99.90
18930;DHT22;43305;52.186;5.598;2023-10-13T00:18:24;16.80;99.90
18930;DHT22;43305;52.186;5.598;2023-10-13T00:20:52;16.80;99.90
18930;DHT22;43305;52.186;5.598;2023-10-13T00:23:22;16.80;99.90
18930;DHT22;43305;52.186;5.598;2023-10-13T00:25:54;16.80;99.90
18930;DHT22;43305;52.186;5.598;2023-10-13T00:28:25;16.80;99.90
18930;DHT22;43305;52.186;5.598;2023-10-13T00:30:53;16.80;99.90
18930;DHT22;43305;52.186;5.598;2023-10-13T00:33:26;16.80;99.90
18930;DHT22;43305;52.186;5.598;2023-10-13T00:35:53;16.80;99.90
18930;DHT22;43305;52.186;5.598;2023-10-13T00:38:23;16.80;99.90
18930;DHT22;43305;52.186;5.598;2023-10-13T00:40:50;16.80;99.90
18930;DHT22;43305;52.186;5.598;2023-10-13T00:43:22;16.80;99.90
18930;DHT22;43305;52.186;5.598;2023-10-13T00:46:01;16.80;99.90
18930;DHT22;43305;52.186;5.598;2023-10-13T00:48:36;16.80;99.90
18930;DHT22;43305;52.186;5.598;2023-10-13T00:51:10;16.80;99.90
18930;DHT22;43305;52.186;5.598;2023-10-13T00:53:44;16.80;99.90
18930;DHT22;43305;52.186;5.598;2023-10-13T00:56:13;16.80;99.90
18930;DHT22;43305;52.186;5.598;2023-10-13T00:58:48;16.80;99.90
18930;DHT22;43305;52.186;5.598;2023-10-13T01:01:18;16.80;99.90
18930;DHT22;43305;52.186;5.598;2023-10-13T01:03:45;16.80;99.90
18930;DHT22;43305;52.186;5.598;2023-10-13T01:06:14;16.70;99.90
18930;DHT22;43305;52.186;5.598;2023-10-13T01:08:42;16.80;99.90
18930;DHT22;43305;52.186;5.598;2023-10-13T01:11:10;16.80;99.90
18930;DHT22;43305;52.186;5.598;2023-10-13T01:13:36;16.70;99.90
18930;DHT22;43305;52.186;5.598;2023-10-13T01:16:07;16.80;99.90
18930;DHT22;43305;52.186;5.598;2023-10-13T01:18:35;16.80;99.90
18930;DHT22;43305;52.186;5.598;2023-10-13T01:21:14;16.70;99.90
18930;DHT22;43305;52.186;5.598;2023-10-13T01:23:43;16.80;99.90
18930;DHT22;43305;52.186;5.598;2023-10-13T01:26:17;16.80;99.90
18930;DHT22;43305;52.186;5.598;2023-10-13T01:28:49;16.80;99.90
18930;DHT22;43305;52.186;5.598;2023-10-13T01:31:17;16.80;99.90
18930;DHT22;43305;52.186;5.598;2023-10-13T01:33:51;16.80;99.90
18930;DHT22;43305;52.186;5.598;2023-10-13T01:36:21;16.80;99.90
18930;DHT22;43305;52.186;5.598;2023-10-13T01:38:49;16.80;99.90
18930;DHT22;43305;52.186;5.598;2023-10-13T01:41:18;16.80;99.90
18930;DHT22;43305;52.186;5.598;2023-10-13T01:43:44;16.80;99.90
18930;DHT22;43305;52.186;5.598;2023-10-13T01:46:11;16.80;99.90
18930;DHT22;43305;52.186;5.598;2023-10-13T01:48:39;16.80;99.90
18930;DHT22;43305;52.186;5.598;2023-10-13T01:51:07;16.80;99.90
18930;DHT22;43305;52.186;5.598;2023-10-13T01:53:36;16.80;99.90
18930;DHT22;43305;52.186;5.598;2023-10-13T01:56:05;16.80;99.90
18930;DHT22;43305;52.186;5.598;2023-10-13T01:58:36;16.80;99.90
18930;DHT22;43305;52.186;5.598;2023-10-13T02:01:02;16.80;99.90
18930;DHT22;43305;52.186;5.598;2023-10-13T02:03:33;16.80;99.90
18930;DHT22;43305;52.186;5.598;2023-10-13T02:05:59;16.80;99.90
18930;DHT22;43305;52.186;5.598;2023-10-13T02:08:30;16.80;99.90
18930;DHT22;43305;52.186;5.598;2023-10-13T02:10:58;16.80;99.90
18930;DHT22;43305;52.186;5.598;2023-10-13T02:13:28;16.80;99.90
18930;DHT22;43305;52.186;5.598;2023-10-13T02:15:56;16.80;99.90
18930;DHT22;43305;52.186;5.598;2023-10-13T02:18:23;16.80;99.90
18930;DHT22;43305;52.186;5.598;2023-10-13T02:20:52;16.80;99.90
18930;DHT22;43305;52.186;5.598;2023-10-13T02:23:21;16.80;99.90
18930;DHT22;43305;52.186;5.598;2023-10-13T02:25:47;16.80;99.90
18930;DHT22;43305;52.186;5.598;2023-10-13T02:28:18;16.80;99.90
18930;DHT22;43305;52.186;5.598;2023-10-13T02:30:48;16.80;99.90
18930;DHT22;43305;52.186;5.598;2023-10-13T02:33:16;16.80;99.90
18930;DHT22;43305;52.186;5.598;2023-10-13T02:35:48;16.80;99.90
18930;DHT22;43305;52.186;5.598;2023-10-13T02:38:20;16.80;99.90
18930;DHT22;43305;52.186;5.598;2023-10-13T02:40:52;16.80;99.90
18930;DHT22;43305;52.186;5.598;2023-10-13T02:43:21;16.80;99.90
18930;DHT22;43305;52.186;5.598;2023-10-13T02:45:53;16.80;99.90
18930;DHT22;43305;52.186;5.598;2023-10-13T02:48:24;16.80;99.90
18930;DHT22;43305;52.186;5.598;2023-10-13T02:50:56;16.80;99.90
18930;DHT22;43305;52.186;5.598;2023-10-13T02:53:23;16.80;99.90
18930;DHT22;43305;52.186;5.598;2023-10-13T02:55:50;16.80;99.90
18930;DHT22;43305;52.186;5.598;2023-10-13T02:58:18;16.70;99.90
18930;DHT22;43305;52.186;5.598;2023-10-13T03:00:44;16.70;99.90
18930;DHT22;43305;52.186;5.598;2023-10-13T03:03:15;16.70;99.90
18930;DHT22;43305;52.186;5.598;2023-10-13T03:05:44;16.70;99.90
18930;DHT22;43305;52.186;5.598;2023-10-13T03:08:11;16.70;99.90
18930;DHT22;43305;52.186;5.598;2023-10-13T03:10:43;16.70;99.90
18930;DHT22;43305;52.186;5.598;2023-10-13T03:13:15;16.70;99.90
18930;DHT22;43305;52.186;5.598;2023-10-13T03:15:41;16.70;99.90
18930;DHT22;43305;52.186;5.598;2023-10-13T03:18:14;16.70;99.90
18930;DHT22;43305;52.186;5.598;2023-10-13T03:20:43;16.70;99.90
18930;DHT22;43305;52.186;5.598;2023-10-13T03:23:15;16.60;99.90
18930;DHT22;43305;52.186;5.598;2023-10-13T03:25:45;16.60;99.90
18930;DHT22;43305;52.186;5.598;2023-10-13T03:28:15;16.60;99.90
18930;DHT22;43305;52.186;5.598;2023-10-13T03:30:46;16.60;99.90
18930;DHT22;43305;52.186;5.598;2023-10-13T03:33:19;16.60;99.90
18930;DHT22;43305;52.186;5.598;2023-10-13T03:35:52;16.60;99.90
18930;DHT22;43305;52.186;5.598;2023-10-13T03:38:20;16.60;99.90
18930;DHT22;43305;52.186;5.598;2023-10-13T03:40:52;16.60;99.90
18930;DHT22;43305;52.186;5.598;2023-10-13T03:43:32;16.60;99.90
18930;DHT22;43305;52.186;5.598;2023-10-13T03:46:10;16.60;99.90
18930;DHT22;43305;52.186;5.598;2023-10-13T03:48:38;16.60;99.90
18930;DHT22;43305;52.186;5.598;2023-10-13T03:51:17;16.50;99.90
18930;DHT22;43305;52.186;5.598;2023-10-13T03:53:44;16.50;99.90
18930;DHT22;43305;52.186;5.598;2023-10-13T03:56:18;16.50;99.90
18930;DHT22;43305;52.186;5.598;2023-10-13T03:58:52;16.50;99.90
18930;DHT22;43305;52.186;5.598;2023-10-13T04:01:19;16.50;99.90
18930;DHT22;43305;52.186;5.598;2023-10-13T04:03:58;16.50;99.90
18930;DHT22;43305;52.186;5.598;2023-10-13T04:06:31;16.50;99.90
18930;DHT22;43305;52.186;5.598;2023-10-13T04:09:18;16.50;99.90
18930;DHT22;43305;52.186;5.598;2023-10-13T04:12:04;16.50;99.90
18930;DHT22;43305;52.186;5.598;2023-10-13T04:15:10;16.50;99.90
18930;DHT22;43305;52.186;5.598;2023-10-13T04:17:49;16.50;99.90
18930;DHT22;43305;52.186;5.598;2023-10-13T04:20:17;16.50;99.90
18930;DHT22;43305;52.186;5.598;2023-10-13T04:22:58;16.50;99.90
18930;DHT22;43305;52.186;5.598;2023-10-13T04:25:43;16.50;99.90
18930;DHT22;43305;52.186;5.598;2023-10-13T04:28:31;16.50;99.90
18930;DHT22;43305;52.186;5.598;2023-10-13T04:31:01;16.50;99.90
18930;DHT22;43305;52.186;5.598;2023-10-13T04:33:38;16.50;99.90
18930;DHT22;43305;52.186;5.598;2023-10-13T04:36:18;16.50;99.90
18930;DHT22;43305;52.186;5.598;2023-10-13T04:39:02;16.40;99.90
18930;DHT22;43305;52.186;5.598;2023-10-13T04:41:36;16.40;99.90
18930;DHT22;43305;52.186;5.598;2023-10-13T04:44:05;16.50;99.90
18930;DHT22;43305;52.186;5.598;2023-10-13T04:46:51;16.40;99.90
18930;DHT22;43305;52.186;5.598;2023-10-13T04:49:34;16.50;99.90
18930;DHT22;43305;52.186;5.598;2023-10-13T04:52:17;16.50;99.90
18930;DHT22;43305;52.186;5.598;2023-10-13T04:55:01;16.40;99.90
18930;DHT22;43305;52.186;5.598;2023-10-13T04:57:43;16.50;99.90
18930;DHT22;43305;52.186;5.598;2023-10-13T05:00:18;16.50;99.90
18930;DHT22;43305;52.186;5.598;2023-10-13T05:03:03;16.50;99.90
18930;DHT22;43305;52.186;5.598;2023-10-13T05:05:48;16.50;99.90
18930;DHT22;43305;52.186;5.598;2023-10-13T05:08:36;16.50;99.90
18930;DHT22;43305;52.186;5.598;2023-10-13T05:11:28;16.50;99.90
18930;DHT22;43305;52.186;5.598;2023-10-13T05:14:16;16.60;99.90
18930;DHT22;43305;52.186;5.598;2023-10-13T05:17:00;16.60;99.90
18930;DHT22;43305;52.186;5.598;2023-10-13T05:19:44;16.60;99.90
18930;DHT22;43305;52.186;5.598;2023-10-13T05:22:33;16.60;99.90
18930;DHT22;43305;52.186;5.598;2023-10-13T05:25:19;16.60;99.90
18930;DHT22;43305;52.186;5.598;2023-10-13T05:28:04;16.80;99.90
18930;DHT22;43305;52.186;5.598;2023-10-13T05:30:48;16.80;99.90
18930;DHT22;43305;52.186;5.598;2023-10-13T05:33:32;16.90;99.90
18930;DHT22;43305;52.186;5.598;2023-10-13T05:36:17;17.00;99.90
18930;DHT22;43305;52.186;5.598;2023-10-13T05:39:01;17.10;99.90
18930;DHT22;43305;52.186;5.598;2023-10-13T05:41:46;17.10;99.90
18930;DHT22;43305;52.186;5.598;2023-10-13T05:44:33;17.20;99.90
18930;DHT22;43305;52.186;5.598;2023-10-13T05:47:03;17.20;99.90
18930;DHT22;43305;52.186;5.598;2023-10-13T05:49:50;17.30;99.90
18930;DHT22;43305;52.186;5.598;2023-10-13T05:52:18;17.20;99.90
18930;DHT22;43305;52.186;5.598;2023-10-13T05:54:46;17.30;99.90
18930;DHT22;43305;52.186;5.598;2023-10-13T05:57:31;17.30;99.90
18930;DHT22;43305;52.186;5.598;2023-10-13T06:00:16;17.20;99.90
18930;DHT22;43305;52.186;5.598;2023-10-13T06:03:01;17.20;99.90
18930;DHT22;43305;52.186;5.598;2023-10-13T06:05:56;17.20;99.90
18930;DHT22;43305;52.186;5.598;2023-10-13T06:08:40;17.20;99.90
18930;DHT22;43305;52.186;5.598;2023-10-13T06:11:25;17.20;99.90
18930;DHT22;43305;52.186;5.598;2023-10-13T06:14:11;17.20;99.90
18930;DHT22;43305;52.186;5.598;2023-10-13T06:16:55;17.20;99.90
18930;DHT22;43305;52.186;5.598;2023-10-13T06:19:42;17.10;99.90
18930;DHT22;43305;52.186;5.598;2023-10-13T06:22:26;17.10;99.90
18930;DHT22;43305;52.186;5.598;2023-10-13T06:25:07;17.10;99.90
18930;DHT22;43305;52.186;5.598;2023-10-13T06:27:52;17.00;99.90
18930;DHT22;43305;52.186;5.598;2023-10-13T06:30:37;17.10;99.90
18930;DHT22;43305;52.186;5.598;2023-10-13T06:33:04;17.10;99.90
18930;DHT22;43305;52.186;5.598;2023-10-13T06:35:34;17.10;99.90
18930;DHT22;43305;52.186;5.598;2023-10-13T06:38:04;17.10;99.90
18930;DHT22;43305;52.186;5.598;2023-10-13T06:40:35;17.00;99.90
18930;DHT22;43305;52.186;5.598;2023-10-13T06:43:03;17.10;99.90
18930;DHT22;43305;52.186;5.598;2023-10-13T06:45:43;17.10;99.90
18930;DHT22;43305;52.186;5.598;2023-10-13T06:48:16;17.10;99.90
18930;DHT22;43305;52.186;5.598;2023-10-13T06:50:48;17.10;99.90
18930;DHT22;43305;52.186;5.598;2023-10-13T06:53:14;17.20;99.90
18930;DHT22;43305;52.186;5.598;2023-10-13T06:55:41;17.20;99.90
18930;DHT22;43305;52.186;5.598;2023-10-13T06:58:12;17.20;99.90
18930;DHT22;43305;52.186;5.598;2023-10-13T07:00:40;17.20;99.90
18930;DHT22;43305;52.186;5.598;2023-10-13T07:03:19;17.30;99.90
18930;DHT22;43305;52.186;5.598;2023-10-13T07:05:46;17.30;99.90
18930;DHT22;43305;52.186;5.598;2023-10-13T07:08:15;17.30;99.90
18930;DHT22;43305;52.186;5.598;2023-10-13T07:10:49;17.40;99.90
18930;DHT22;43305;52.186;5.598;2023-10-13T07:13:18;17.30;99.90
18930;DHT22;43305;52.186;5.598;2023-10-13T07:15:45;17.40;99.90
18930;DHT22;43305;52.186;5.598;2023-10-13T07:18:16;17.40;99.90
18930;DHT22;43305;52.186;5.598;2023-10-13T07:20:47;17.50;99.90
18930;DHT22;43305;52.186;5.598;2023-10-13T07:23:14;17.50;99.90
18930;DHT22;43305;52.186;5.598;2023-10-13T07:25:52;17.60;99.90
18930;DHT22;43305;52.186;5.598;2023-10-13T07:28:20;17.60;99.90
18930;DHT22;43305;52.186;5.598;2023-10-13T07:30:47;17.60;99.90
18930;DHT22;43305;52.186;5.598;2023-10-13T07:33:36;17.70;99.90
18930;DHT22;43305;52.186;5.598;2023-10-13T07:36:06;17.70;99.90
18930;DHT22;43305;52.186;5.598;2023-10-13T07:38:41;17.70;99.90
18930;DHT22;43305;52.186;5.598;2023-10-13T07:41:14;17.70;99.90
18930;DHT22;43305;52.186;5.598;2023-10-13T07:43:41;17.80;99.90
18930;DHT22;43305;52.186;5.598;2023-10-13T07:46:08;17.80;99.90
18930;DHT22;43305;52.186;5.598;2023-10-13T07:48:36;17.80;99.90
18930;DHT22;43305;52.186;5.598;2023-10-13T07:51:08;17.80;99.90
18930;DHT22;43305;52.186;5.598;2023-10-13T07:53:37;17.80;99.90
18930;DHT22;43305;52.186;5.598;2023-10-13T07:56:06;17.80;99.90
18930;DHT22;43305;52.186;5.598;2023-10-13T07:58:34;17.90;99.90
18930;DHT22;43305;52.186;5.598;2023-10-13T08:01:01;17.90;99.90
18930;DHT22;43305;52.186;5.598;2023-10-13T08:03:34;17.90;99.90
18930;DHT22;43305;52.186;5.598;2023-10-13T08:06:12;18.00;99.90
18930;DHT22;43305;52.186;5.598;2023-10-13T08:08:47;17.90;99.90
18930;DHT22;43305;52.186;5.598;2023-10-13T08:11:19;18.00;99.90
18930;DHT22;43305;52.186;5.598;2023-10-13T08:13:53;18.10;99.90
18930;DHT22;43305;52.186;5.598;2023-10-13T08:16:21;18.10;99.90
18930;DHT22;43305;52.186;5.598;2023-10-13T08:18:49;18.10;99.90
18930;DHT22;43305;52.186;5.598;2023-10-13T08:21:18;18.20;99.90
18930;DHT22;43305;52.186;5.598;2023-10-13T08:23:48;18.20;99.90
18930;DHT22;43305;52.186;5.598;2023-10-13T08:26:27;18.20;99.90
18930;DHT22;43305;52.186;5.598;2023-10-13T08:29:18;18.20;99.90
18930;DHT22;43305;52.186;5.598;2023-10-13T08:32:03;18.20;99.90
18930;DHT22;43305;52.186;5.598;2023-10-13T08:34:47;18.30;99.90
18930;DHT22;43305;52.186;5.598;2023-10-13T08:37:33;18.40;99.90
18930;DHT22;43305;52.186;5.598;2023-10-13T08:40:13;18.40;99.90
18930;DHT22;43305;52.186;5.598;2023-10-13T08:43:04;18.40;99.90
18930;DHT22;43305;52.186;5.598;2023-10-13T08:45:39;18.50;99.90
18930;DHT22;43305;52.186;5.598;2023-10-13T08:48:24;18.50;99.90
18930;DHT22;43305;52.186;5.598;2023-10-13T08:50:57;18.50;99.90
18930;DHT22;43305;52.186;5.598;2023-10-13T08:53:32;18.50;99.90
18930;DHT22;43305;52.186;5.598;2023-10-13T08:56:10;18.60;99.90
18930;DHT22;43305;52.186;5.598;2023-10-13T08:58:42;18.70;99.90
18930;DHT22;43305;52.186;5.598;2023-10-13T09:01:33;18.70;99.90
18930;DHT22;43305;52.186;5.598;2023-10-13T09:04:06;18.70;99.90
18930;DHT22;43305;52.186;5.598;2023-10-13T09:06:49;18.70;99.90
18930;DHT22;43305;52.186;5.598;2023-10-13T09:09:45;18.70;99.90
18930;DHT22;43305;52.186;5.598;2023-10-13T09:12:26;18.80;99.90
18930;DHT22;43305;52.186;5.598;2023-10-13T09:15:04;18.80;99.90
18930;DHT22;43305;52.186;5.598;2023-10-13T09:17:32;18.80;99.90
18930;DHT22;43305;52.186;5.598;2023-10-13T09:20:05;18.80;99.90
18930;DHT22;43305;52.186;5.598;2023-10-13T09:22:46;18.80;99.90
18930;DHT22;43305;52.186;5.598;2023-10-13T09:25:23;18.80;99.90
18930;DHT22;43305;52.186;5.598;2023-10-13T09:27:50;18.80;99.90
18930;DHT22;43305;52.186;5.598;2023-10-13T09:30:19;18.80;99.90
18930;DHT22;43305;52.186;5.598;2023-10-13T09:32:59;18.80;99.90
18930;DHT22;43305;52.186;5.598;2023-10-13T09:35:28;18.80;99.90
18930;DHT22;43305;52.186;5.598;2023-10-13T09:37:58;18.80;99.90
18930;DHT22;43305;52.186;5.598;2023-10-13T09:40:29;18.90;99.90
18930;DHT22;43305;52.186;5.598;2023-10-13T09:43:00;19.00;99.90
18930;DHT22;43305;52.186;5.598;2023-10-13T09:45:34;19.00;99.90
18930;DHT22;43305;52.186;5.598;2023-10-13T09:48:09;19.00;99.90
18930;DHT22;43305;52.186;5.598;2023-10-13T09:50:43;19.00;99.90
18930;DHT22;43305;52.186;5.598;2023-10-13T09:53:10;19.00;99.90
18930;DHT22;43305;52.186;5.598;2023-10-13T09:55:46;19.00;99.90
18930;DHT22;43305;52.186;5.598;2023-10-13T09:58:15;19.00;99.90
18930;DHT22;43305;52.186;5.598;2023-10-13T10:00:47;19.00;99.90
18930;DHT22;43305;52.186;5.598;2023-10-13T10:03:15;19.10;99.90
18930;DHT22;43305;52.186;5.598;2023-10-13T10:05:59;19.00;99.90
18930;DHT22;43305;52.186;5.598;2023-10-13T10:08:41;19.00;99.90
18930;DHT22;43305;52.186;5.598;2023-10-13T10:14:16;19.00;99.90
18930;DHT22;43305;52.186;5.598;2023-10-13T10:16:58;19.10;99.90
18930;DHT22;43305;52.186;5.598;2023-10-13T10:19:29;19.10;99.90
18930;DHT22;43305;52.186;5.598;2023-10-13T10:22:02;19.20;99.90
18930;DHT22;43305;52.186;5.598;2023-10-13T10:24:36;19.20;99.90
18930;DHT22;43305;52.186;5.598;2023-10-13T10:27:05;19.20;99.90
18930;DHT22;43305;52.186;5.598;2023-10-13T10:29:32;19.30;99.90
18930;DHT22;43305;52.186;5.598;2023-10-13T10:31:59;19.30;99.90
18930;DHT22;43305;52.186;5.598;2023-10-13T10:34:32;19.40;99.90
18930;DHT22;43305;52.186;5.598;2023-10-13T10:37:01;19.40;99.90
18930;DHT22;43305;52.186;5.598;2023-10-13T10:39:34;19.50;99.90
18930;DHT22;43305;52.186;5.598;2023-10-13T10:42:12;19.60;99.90
18930;DHT22;43305;52.186;5.598;2023-10-13T10:44:43;19.70;99.90
18930;DHT22;43305;52.186;5.598;2023-10-13T10:47:14;19.80;99.90
18930;DHT22;43305;52.186;5.598;2023-10-13T10:49:46;19.80;99.90
18930;DHT22;43305;52.186;5.598;2023-10-13T10:52:17;20.00;99.90
18930;DHT22;43305;52.186;5.598;2023-10-13T10:54:45;20.00;99.90
18930;DHT22;43305;52.186;5.598;2023-10-13T10:57:18;20.00;99.90
18930;DHT22;43305;52.186;5.598;2023-10-13T10:59:45;20.10;99.90
18930;DHT22;43305;52.186;5.598;2023-10-13T11:02:13;20.10;99.90
18930;DHT22;43305;52.186;5.598;2023-10-13T11:04:44;20.10;99.90
18930;DHT22;43305;52.186;5.598;2023-10-13T11:07:23;20.10;99.90
18930;DHT22;43305;52.186;5.598;2023-10-13T11:09:50;20.10;99.90
18930;DHT22;43305;52.186;5.598;2023-10-13T11:12:33;20.20;99.90
18930;DHT22;43305;52.186;5.598;2023-10-13T11:15:02;20.20;99.90
18930;DHT22;43305;52.186;5.598;2023-10-13T11:17:31;20.30;99.90
18930;DHT22;43305;52.186;5.598;2023-10-13T11:20:19;20.30;99.90
18930;DHT22;43305;52.186;5.598;2023-10-13T11:22:51;20.30;99.90
18930;DHT22;43305;52.186;5.598;2023-10-13T11:25:23;20.30;99.90
18930;DHT22;43305;52.186;5.598;2023-10-13T11:27:57;20.40;99.90
18930;DHT22;43305;52.186;5.598;2023-10-13T11:30:26;20.40;99.90
18930;DHT22;43305;52.186;5.598;2023-10-13T11:33:00;20.40;99.90
18930;DHT22;43305;52.186;5.598;2023-10-13T11:35:31;20.40;99.90
18930;DHT22;43305;52.186;5.598;2023-10-13T11:38:15;20.40;99.90
18930;DHT22;43305;52.186;5.598;2023-10-13T11:40:51;20.50;99.90
18930;DHT22;43305;52.186;5.598;2023-10-13T11:43:35;20.50;99.90
18930;DHT22;43305;52.186;5.598;2023-10-13T11:46:19;20.50;99.90
18930;DHT22;43305;52.186;5.598;2023-10-13T11:49:07;20.50;99.90
18930;DHT22;43305;52.186;5.598;2023-10-13T11:51:44;20.60;99.90
18930;DHT22;43305;52.186;5.598;2023-10-13T11:54:11;20.60;99.90
18930;DHT22;43305;52.186;5.598;2023-10-13T11:56:38;20.70;99.90
18930;DHT22;43305;52.186;5.598;2023-10-13T11:59:06;20.70;99.90
18930;DHT22;43305;52.186;5.598;2023-10-13T12:01:43;20.70;99.90
18930;DHT22;43305;52.186;5.598;2023-10-13T12:04:27;20.70;99.90
18930;DHT22;43305;52.186;5.598;2023-10-13T12:07:05;20.70;99.90
18930;DHT22;43305;52.186;5.598;2023-10-13T12:09:43;20.70;99.90
18930;DHT22;43305;52.186;5.598;2023-10-13T12:12:29;20.70;99.90
18930;DHT22;43305;52.186;5.598;2023-10-13T12:14:58;20.90;99.90
18930;DHT22;43305;52.186;5.598;2023-10-13T12:17:34;20.90;99.90
18930;DHT22;43305;52.186;5.598;2023-10-13T12:20:02;20.90;99.90
18930;DHT22;43305;52.186;5.598;2023-10-13T12:22:31;20.90;99.90
18930;DHT22;43305;52.186;5.598;2023-10-13T12:25:05;20.90;99.90
18930;DHT22;43305;52.186;5.598;2023-10-13T12:27:44;20.80;99.90
18930;DHT22;43305;52.186;5.598;2023-10-13T12:30:15;20.80;99.90
18930;DHT22;43305;52.186;5.598;2023-10-13T12:32:48;20.90;99.90
18930;DHT22;43305;52.186;5.598;2023-10-13T12:35:31;20.90;99.90
18930;DHT22;43305;52.186;5.598;2023-10-13T12:38:10;20.90;99.90
18930;DHT22;43305;52.186;5.598;2023-10-13T12:41:04;20.90;99.90
18930;DHT22;43305;52.186;5.598;2023-10-13T12:43:49;21.00;99.90
18930;DHT22;43305;52.186;5.598;2023-10-13T12:46:34;21.00;99.90
18930;DHT22;43305;52.186;5.598;2023-10-13T12:49:18;20.90;99.90
18930;DHT22;43305;52.186;5.598;2023-10-13T12:52:04;21.00;99.90
18930;DHT22;43305;52.186;5.598;2023-10-13T12:54:41;21.00;99.90
18930;DHT22;43305;52.186;5.598;2023-10-13T12:57:12;20.90;99.90
18930;DHT22;43305;52.186;5.598;2023-10-13T12:59:39;20.90;99.90
18930;DHT22;43305;52.186;5.598;2023-10-13T13:02:07;20.90;99.90
18930;DHT22;43305;52.186;5.598;2023-10-13T13:04:40;20.80;99.90
18930;DHT22;43305;52.186;5.598;2023-10-13T13:07:10;20.80;99.90
18930;DHT22;43305;52.186;5.598;2023-10-13T13:09:39;20.80;99.90
18930;DHT22;43305;52.186;5.598;2023-10-13T13:12:06;20.70;99.90
18930;DHT22;43305;52.186;5.598;2023-10-13T13:14:33;20.70;99.90
18930;DHT22;43305;52.186;5.598;2023-10-13T13:17:05;20.70;99.90
18930;DHT22;43305;52.186;5.598;2023-10-13T13:19:34;20.70;99.90
18930;DHT22;43305;52.186;5.598;2023-10-13T13:22:05;20.60;99.90
18930;DHT22;43305;52.186;5.598;2023-10-13T13:24:37;20.60;99.90
18930;DHT22;43305;52.186;5.598;2023-10-13T13:27:09;20.50;99.90
18930;DHT22;43305;52.186;5.598;2023-10-13T13:29:39;20.40;99.90
18930;DHT22;43305;52.186;5.598;2023-10-13T13:32:06;20.30;99.90
18930;DHT22;43305;52.186;5.598;2023-10-13T13:34:44;20.20;99.90
18930;DHT22;43305;52.186;5.598;2023-10-13T13:37:20;20.10;99.90
18930;DHT22;43305;52.186;5.598;2023-10-13T13:39:46;20.10;99.90
18930;DHT22;43305;52.186;5.598;2023-10-13T13:42:13;20.00;99.90
18930;DHT22;43305;52.186;5.598;2023-10-13T13:44:43;19.90;99.90
18930;DHT22;43305;52.186;5.598;2023-10-13T13:47:12;19.90;99.90
18930;DHT22;43305;52.186;5.598;2023-10-13T13:49:39;19.80;99.90
18930;DHT22;43305;52.186;5.598;2023-10-13T13:52:07;19.70;99.90
18930;DHT22;43305;52.186;5.598;2023-10-13T13:54:35;19.70;99.90
18930;DHT22;43305;52.186;5.598;2023-10-13T13:57:06;19.60;99.90
18930;DHT22;43305;52.186;5.598;2023-10-13T13:59:33;19.50;99.90
18930;DHT22;43305;52.186;5.598;2023-10-13T14:02:02;19.40;99.90
18930;DHT22;43305;52.186;5.598;2023-10-13T14:04:44;19.40;99.90
18930;DHT22;43305;52.186;5.598;2023-10-13T14:07:15;19.30;99.90
18930;DHT22;43305;52.186;5.598;2023-10-13T14:09:44;19.30;99.90
18930;DHT22;43305;52.186;5.598;2023-10-13T14:12:15;19.30;99.90
18930;DHT22;43305;52.186;5.598;2023-10-13T14:15:08;19.30;99.90
18930;DHT22;43305;52.186;5.598;2023-10-13T14:17:45;19.30;99.90
18930;DHT22;43305;52.186;5.598;2023-10-13T14:20:14;19.20;99.90
18930;DHT22;43305;52.186;5.598;2023-10-13T14:22:45;19.20;99.90
18930;DHT22;43305;52.186;5.598;2023-10-13T14:25:14;19.10;99.90
18930;DHT22;43305;52.186;5.598;2023-10-13T14:27:41;19.00;99.90
18930;DHT22;43305;52.186;5.598;2023-10-13T14:30:08;18.90;99.90
18930;DHT22;43305;52.186;5.598;2023-10-13T14:32:35;18.80;99.90
18930;DHT22;43305;52.186;5.598;2023-10-13T14:35:06;18.80;99.90
18930;DHT22;43305;52.186;5.598;2023-10-13T14:37:40;18.70;99.90
18930;DHT22;43305;52.186;5.598;2023-10-13T14:40:09;18.60;99.90
18930;DHT22;43305;52.186;5.598;2023-10-13T14:42:38;18.60;99.90
18930;DHT22;43305;52.186;5.598;2023-10-13T14:45:06;18.60;99.90
18930;DHT22;43305;52.186;5.598;2023-10-13T14:47:38;18.50;99.90
18930;DHT22;43305;52.186;5.598;2023-10-13T14:50:06;18.50;99.90
18930;DHT22;43305;52.186;5.598;2023-10-13T14:52:34;18.50;99.90
18930;DHT22;43305;52.186;5.598;2023-10-13T14:55:01;18.50;99.90
18930;DHT22;43305;52.186;5.598;2023-10-13T14:57:34;18.50;99.90
18930;DHT22;43305;52.186;5.598;2023-10-13T15:00:04;18.50;99.90
18930;DHT22;43305;52.186;5.598;2023-10-13T15:02:38;18.50;99.90
18930;DHT22;43305;52.186;5.598;2023-10-13T15:05:09;18.50;99.90
18930;DHT22;43305;52.186;5.598;2023-10-13T15:07:42;18.40;99.90
18930;DHT22;43305;52.186;5.598;2023-10-13T15:10:13;18.50;99.90
18930;DHT22;43305;52.186;5.598;2023-10-13T15:12:43;18.50;99.90
18930;DHT22;43305;52.186;5.598;2023-10-13T15:15:11;18.40;99.90
18930;DHT22;43305;52.186;5.598;2023-10-13T15:17:41;18.40;99.90
18930;DHT22;43305;52.186;5.598;2023-10-13T15:20:09;18.30;99.90
18930;DHT22;43305;52.186;5.598;2023-10-13T15:22:41;18.30;99.90
18930;DHT22;43305;52.186;5.598;2023-10-13T15:25:08;18.20;99.90
18930;DHT22;43305;52.186;5.598;2023-10-13T15:27:44;18.20;99.90
18930;DHT22;43305;52.186;5.598;2023-10-13T15:30:16;18.20;99.90
18930;DHT22;43305;52.186;5.598;2023-10-13T15:32:52;18.20;99.90
18930;DHT22;43305;52.186;5.598;2023-10-13T15:35:19;18.10;99.90
18930;DHT22;43305;52.186;5.598;2023-10-13T15:37:49;18.20;99.90
18930;DHT22;43305;52.186;5.598;2023-10-13T15:40:17;18.10;99.90
18930;DHT22;43305;52.186;5.598;2023-10-13T15:42:45;18.10;99.90
18930;DHT22;43305;52.186;5.598;2023-10-13T15:45:13;18.10;99.90
18930;DHT22;43305;52.186;5.598;2023-10-13T15:47:44;18.10;99.90
18930;DHT22;43305;52.186;5.598;2023-10-13T15:50:15;18.00;99.90
18930;DHT22;43305;52.186;5.598;2023-10-13T15:52:45;18.00;99.90
18930;DHT22;43305;52.186;5.598;2023-10-13T15:55:14;18.00;99.90
18930;DHT22;43305;52.186;5.598;2023-10-13T15:57:41;17.90;99.90
18930;DHT22;43305;52.186;5.598;2023-10-13T16:00:11;17.90;99.90
18930;DHT22;43305;52.186;5.598;2023-10-13T16:02:51;17.90;99.90
18930;DHT22;43305;52.186;5.598;2023-10-13T16:05:20;17.90;99.90
18930;DHT22;43305;52.186;5.598;2023-10-13T16:07:50;17.90;99.90
18930;DHT22;43305;52.186;5.598;2023-10-13T16:10:17;17.90;99.90
18930;DHT22;43305;52.186;5.598;2023-10-13T16:12:44;17.90;99.90